Time;durP1;ratioP1;P1;durP2;ratioP2;P2;SDS_P1;SDS_P2;PMS_P1;PMS_P2;Temp;Humidity;BMP_temperature;BMP_pressure;BME280_temperature;BME280_humidity;BME280_pressure;Samples;Min_cycle;Max_cycle;Signal;HPM_P1;HPM_P2
2023/10/19 00:01:23;;;;;;;0.63;0.63;;;13.20;68.30;;;;;;5057838;28;20526;-70
2023/10/19 00:03:49;;;;;;;0.55;0.55;;;13.20;68.30;;;;;;5059438;28;20033;-70
2023/10/19 00:06:17;;;;;;;0.80;0.80;;;13.20;68.50;;;;;;5065117;28;20031;-70
2023/10/19 00:08:43;;;;;;;0.75;0.75;;;13.30;68.50;;;;;;5053881;28;20060;-71
2023/10/19 00:11:10;;;;;;;1.27;1.17;;;13.20;68.50;;;;;;5048391;28;20075;-70
2023/10/19 00:13:38;;;;;;;0.77;0.77;;;13.20;68.70;;;;;;5061507;28;20094;-70
2023/10/19 00:16:17;;;;;;;0.93;0.93;;;13.30;68.80;;;;;;5049235;28;20028;-70
2023/10/19 00:18:49;;;;;;;0.63;0.63;;;13.20;68.70;;;;;;5054530;28;20029;-72
2023/10/19 00:21:24;;;;;;;0.98;0.98;;;13.20;68.90;;;;;;5049990;28;20477;-70
2023/10/19 00:23:57;;;;;;;0.50;0.50;;;13.20;68.90;;;;;;5056562;28;20120;-71
2023/10/19 00:26:29;;;;;;;0.60;0.60;;;13.20;68.90;;;;;;5066251;28;20043;-70
2023/10/19 00:29:00;;;;;;;5.45;2.70;;;13.20;69.00;;;;;;5051188;28;20086;-70
2023/10/19 00:31:33;;;;;;;3.22;1.85;;;13.20;69.00;;;;;;5058616;28;20033;-69
2023/10/19 00:34:00;;;;;;;0.50;0.50;;;13.20;69.20;;;;;;5057858;28;20059;-70
2023/10/19 00:36:26;;;;;;;0.85;0.85;;;13.20;69.10;;;;;;5065609;28;20494;-70
2023/10/19 00:38:56;;;;;;;6.45;2.58;;;13.10;69.10;;;;;;5039557;28;20593;-70
2023/10/19 00:41:29;;;;;;;0.75;0.75;;;13.10;69.30;;;;;;5057405;28;20012;-70
2023/10/19 00:44:07;;;;;;;0.52;0.52;;;13.10;69.20;;;;;;5058349;28;20045;-70
2023/10/19 00:46:37;;;;;;;0.50;0.50;;;13.10;69.20;;;;;;5067726;28;20059;-69
2023/10/19 00:49:05;;;;;;;1.10;1.10;;;13.10;69.20;;;;;;5054857;28;20400;-68
2023/10/19 00:54:08;;;;;;;1.48;1.30;;;13.10;69.40;;;;;;5061119;28;20040;-78
2023/10/19 00:56:35;;;;;;;1.00;1.00;;;13.10;69.40;;;;;;5070684;28;20032;-77
2023/10/19 00:59:14;;;;;;;0.50;0.50;;;13.10;69.60;;;;;;5055805;28;20066;-78
2023/10/19 01:01:44;;;;;;;0.60;0.60;;;13.20;69.60;;;;;;5064002;28;20024;-69
2023/10/19 01:04:33;;;;;;;0.60;0.60;;;13.20;69.60;;;;;;5059792;28;20037;-70
2023/10/19 01:07:12;;;;;;;0.80;0.80;;;13.20;69.40;;;;;;5042007;28;20054;-69
2023/10/19 01:09:38;;;;;;;0.90;0.90;;;13.20;69.70;;;;;;5064092;28;20029;-70
2023/10/19 01:15:16;;;;;;;0.70;0.70;;;13.20;69.60;;;;;;5056684;28;20075;-69
2023/10/19 01:17:44;;;;;;;1.38;1.20;;;13.20;69.60;;;;;;5063491;28;20055;-70
2023/10/19 01:28:28;;;;;;;0.70;0.70;;;13.20;69.70;;;;;;5058049;28;20041;-69
2023/10/19 01:30:54;;;;;;;0.75;0.75;;;13.20;69.90;;;;;;5047793;28;20023;-70
2023/10/19 01:33:22;;;;;;;1.17;0.85;;;13.20;69.80;;;;;;5066402;28;20171;-69
2023/10/19 01:38:33;;;;;;;0.47;0.47;;;13.20;69.80;;;;;;5043921;28;20048;-68
2023/10/19 01:41:19;;;;;;;1.05;1.02;;;13.20;69.70;;;;;;5044025;28;20028;-68
2023/10/19 01:43:46;;;;;;;2.75;1.48;;;13.20;69.80;;;;;;5063756;28;20368;-68
2023/10/19 01:46:15;;;;;;;0.50;0.50;;;13.20;69.80;;;;;;5054969;28;20097;-68
2023/10/19 01:48:43;;;;;;;2.53;1.33;;;13.20;69.80;;;;;;5069383;28;20037;-68
2023/10/19 01:51:11;;;;;;;0.75;0.75;;;13.20;69.80;;;;;;5044171;28;20012;-69
2023/10/19 01:53:43;;;;;;;0.50;0.50;;;13.20;69.80;;;;;;5063862;28;20452;-70
2023/10/19 01:56:12;;;;;;;1.42;1.15;;;13.20;69.70;;;;;;5060122;28;20025;-69
2023/10/19 01:58:39;;;;;;;0.57;0.57;;;13.20;69.90;;;;;;5055922;28;20028;-70
2023/10/19 02:01:18;;;;;;;0.77;0.77;;;13.20;69.90;;;;;;5057609;28;20021;-70
2023/10/19 02:03:44;;;;;;;0.45;0.45;;;13.20;69.90;;;;;;5062596;28;20115;-70
2023/10/19 02:06:16;;;;;;;0.80;0.80;;;13.20;70.00;;;;;;5066275;28;20158;-70
2023/10/19 02:08:51;;;;;;;0.50;0.50;;;13.20;70.00;;;;;;5053406;28;20039;-72
2023/10/19 02:11:23;;;;;;;0.50;0.50;;;13.20;70.10;;;;;;5041243;28;20021;-70
2023/10/19 02:13:54;;;;;;;0.47;0.47;;;13.20;70.10;;;;;;5053117;28;20035;-70
2023/10/19 02:16:23;;;;;;;0.57;0.57;;;13.20;70.10;;;;;;5068091;28;20024;-70
2023/10/19 02:18:50;;;;;;;0.75;0.75;;;13.20;70.10;;;;;;5054058;28;20404;-69
2023/10/19 02:21:22;;;;;;;0.50;0.50;;;13.20;70.20;;;;;;5057371;28;20032;-70
2023/10/19 02:23:50;;;;;;;0.52;0.52;;;13.30;70.20;;;;;;5065375;28;20028;-70
2023/10/19 02:26:19;;;;;;;1.52;0.75;;;13.30;70.20;;;;;;5066933;28;20377;-70
2023/10/19 02:28:50;;;;;;;0.73;0.73;;;13.30;70.10;;;;;;5055246;28;20032;-70
2023/10/19 02:31:21;;;;;;;0.75;0.75;;;13.30;70.10;;;;;;5058710;28;20415;-70
2023/10/19 02:33:58;;;;;;;0.50;0.50;;;13.30;70.20;;;;;;5061342;28;20041;-71
2023/10/19 02:36:28;;;;;;;0.60;0.60;;;13.30;70.10;;;;;;5055157;28;20029;-72
2023/10/19 02:39:00;;;;;;;0.77;0.77;;;13.20;70.20;;;;;;5037770;28;20107;-71
2023/10/19 02:41:27;;;;;;;0.60;0.60;;;13.20;70.30;;;;;;5052057;28;20112;-70
2023/10/19 02:44:08;;;;;;;0.75;0.75;;;13.20;70.40;;;;;;5037427;28;20133;-69
2023/10/19 02:46:34;;;;;;;0.88;0.88;;;13.30;70.40;;;;;;5068296;28;20031;-69
2023/10/19 02:49:03;;;;;;;0.88;0.88;;;13.30;70.30;;;;;;5053754;28;20039;-68
2023/10/19 02:51:29;;;;;;;0.50;0.50;;;13.30;70.40;;;;;;5060125;28;20071;-68
2023/10/19 02:53:55;;;;;;;0.60;0.60;;;13.30;70.30;;;;;;5058073;28;20056;-68
2023/10/19 02:56:23;;;;;;;0.50;0.50;;;13.30;70.50;;;;;;5067002;28;20024;-67
2023/10/19 02:58:49;;;;;;;0.45;0.45;;;13.30;70.40;;;;;;5048569;28;20127;-68
2023/10/19 03:01:21;;;;;;;0.60;0.60;;;13.30;70.30;;;;;;5057804;28;20099;-69
2023/10/19 03:03:51;;;;;;;1.20;1.15;;;13.40;70.20;;;;;;5060782;28;20473;-70
2023/10/19 03:06:21;;;;;;;0.70;0.70;;;13.30;70.40;;;;;;5066136;28;20090;-70
2023/10/19 03:08:51;;;;;;;1.02;1.00;;;13.40;70.40;;;;;;5048559;28;20030;-69
2023/10/19 03:11:17;;;;;;;0.50;0.50;;;13.40;70.60;;;;;;5049459;28;20075;-69
2023/10/19 03:13:43;;;;;;;0.50;0.50;;;13.40;70.40;;;;;;5059969;28;20464;-68
2023/10/19 03:16:08;;;;;;;0.50;0.50;;;13.40;70.30;;;;;;5050573;28;20380;-69
2023/10/19 03:18:35;;;;;;;0.50;0.50;;;13.40;70.40;;;;;;5057329;28;20124;-69
2023/10/19 03:21:02;;;;;;;0.50;0.50;;;13.50;70.50;;;;;;5038796;28;20045;-70
2023/10/19 03:23:28;;;;;;;0.70;0.70;;;13.40;70.40;;;;;;5041687;28;20456;-69
2023/10/19 03:26:18;;;;;;;0.90;0.90;;;13.50;70.50;;;;;;5051702;28;20082;-70
2023/10/19 03:28:41;;;;;;;0.63;0.63;;;13.50;70.50;;;;;;5067651;28;20188;-70
2023/10/19 03:31:07;;;;;;;0.50;0.50;;;13.50;70.50;;;;;;5042950;28;20016;-70
2023/10/19 03:33:36;;;;;;;0.60;0.60;;;13.50;70.50;;;;;;5062535;28;20021;-70
2023/10/19 03:36:04;;;;;;;0.40;0.40;;;13.50;70.40;;;;;;5063497;28;20491;-70
2023/10/19 03:38:34;;;;;;;0.60;0.60;;;13.50;70.50;;;;;;5042238;28;20045;-71
2023/10/19 03:41:06;;;;;;;0.50;0.50;;;13.50;70.40;;;;;;5055109;28;20033;-71
2023/10/19 03:43:33;;;;;;;0.68;0.68;;;13.50;70.50;;;;;;5049198;28;20603;-70
2023/10/19 03:45:59;;;;;;;0.50;0.50;;;13.50;70.60;;;;;;5063953;28;20025;-69
2023/10/19 03:48:26;;;;;;;0.60;0.60;;;13.50;70.70;;;;;;5043836;28;20378;-69
2023/10/19 03:50:55;;;;;;;0.45;0.45;;;13.60;70.60;;;;;;5044176;28;20464;-69
2023/10/19 03:53:21;;;;;;;0.50;0.50;;;13.60;70.60;;;;;;5062744;28;20120;-69
2023/10/19 03:55:47;;;;;;;0.68;0.68;;;13.70;70.70;;;;;;5058057;28;20100;-69
2023/10/19 03:58:13;;;;;;;0.50;0.50;;;13.70;70.70;;;;;;5056295;28;20544;-69
2023/10/19 04:00:39;;;;;;;0.60;0.60;;;13.70;70.60;;;;;;5053938;28;20113;-70
2023/10/19 04:03:04;;;;;;;0.50;0.50;;;13.80;70.50;;;;;;5066044;28;20036;-71
2023/10/19 04:05:31;;;;;;;0.60;0.60;;;13.70;70.60;;;;;;5059173;28;20032;-74
2023/10/19 04:08:05;;;;;;;0.50;0.50;;;13.80;70.70;;;;;;5058155;28;20044;-77
2023/10/19 04:10:38;;;;;;;0.43;0.43;;;13.80;70.50;;;;;;5048681;28;20369;-74
2023/10/19 04:13:04;;;;;;;0.95;0.95;;;13.80;70.50;;;;;;5064402;28;20016;-74
2023/10/19 04:15:33;;;;;;;0.40;0.40;;;13.80;70.60;;;;;;5057466;28;20079;-78
2023/10/19 04:18:00;;;;;;;0.47;0.47;;;13.80;70.70;;;;;;5041267;28;20072;-75
2023/10/19 04:22:51;;;;;;;0.50;0.50;;;13.90;70.60;;;;;;5071247;28;20083;-75
2023/10/19 04:25:25;;;;;;;0.50;0.50;;;13.80;70.50;;;;;;5065058;28;20044;-75
2023/10/19 04:27:51;;;;;;;0.40;0.40;;;13.90;70.60;;;;;;5063088;28;20091;-75
2023/10/19 04:30:26;;;;;;;0.70;0.70;;;13.90;70.60;;;;;;5056223;28;20495;-76
2023/10/19 04:32:57;;;;;;;0.50;0.50;;;13.90;70.40;;;;;;5071147;28;20036;-76
2023/10/19 04:35:22;;;;;;;0.40;0.40;;;13.90;70.50;;;;;;5056234;28;20471;-76
2023/10/19 04:37:52;;;;;;;0.50;0.50;;;13.90;70.60;;;;;;5051652;28;20065;-75
2023/10/19 04:40:19;;;;;;;0.73;0.73;;;14.00;70.60;;;;;;5045134;28;20496;-75
2023/10/19 04:42:46;;;;;;;0.45;0.45;;;14.00;70.50;;;;;;5068980;28;20497;-76
2023/10/19 04:45:12;;;;;;;0.40;0.40;;;14.00;70.60;;;;;;5059223;28;20100;-75
2023/10/19 04:47:38;;;;;;;0.43;0.43;;;14.10;70.60;;;;;;5075794;28;20035;-76
2023/10/19 04:50:05;;;;;;;0.40;0.40;;;14.20;70.50;;;;;;5058963;28;20535;-76
2023/10/19 04:52:31;;;;;;;0.50;0.50;;;14.20;70.40;;;;;;5040805;28;20381;-76
2023/10/19 04:54:57;;;;;;;0.60;0.60;;;14.20;70.40;;;;;;5067709;28;20025;-77
2023/10/19 04:57:23;;;;;;;0.57;0.57;;;14.20;70.40;;;;;;5073721;28;20099;-76
2023/10/19 04:59:49;;;;;;;0.50;0.50;;;14.20;70.30;;;;;;5063303;28;20100;-76
2023/10/19 05:02:15;;;;;;;0.50;0.50;;;14.20;70.40;;;;;;5069992;28;20059;-76
2023/10/19 05:04:43;;;;;;;0.50;0.50;;;14.20;70.40;;;;;;5057393;28;20029;-75
2023/10/19 05:07:14;;;;;;;0.45;0.45;;;14.30;70.40;;;;;;5068517;28;20099;-75
2023/10/19 05:09:40;;;;;;;;;;;14.20;70.40;;;;;;5049422;28;20032;-75
2023/10/19 05:12:09;;;;;;;0.40;0.40;;;14.20;70.40;;;;;;5060762;28;19924;-76
2023/10/19 05:14:35;;;;;;;0.60;0.60;;;14.30;70.40;;;;;;5057238;28;20031;-76
2023/10/19 05:17:04;;;;;;;0.50;0.50;;;14.30;70.40;;;;;;5069777;28;20063;-76
2023/10/19 05:19:33;;;;;;;0.50;0.50;;;14.20;70.60;;;;;;5055724;28;20128;-76
2023/10/19 05:22:00;;;;;;;0.50;0.50;;;14.30;70.60;;;;;;5065993;28;20064;-76
2023/10/19 05:24:27;;;;;;;0.40;0.40;;;14.30;70.60;;;;;;5061511;28;20116;-75
2023/10/19 05:26:53;;;;;;;0.40;0.40;;;14.30;70.50;;;;;;5070375;28;20391;-75
2023/10/19 05:29:19;;;;;;;0.40;0.40;;;14.40;70.60;;;;;;5055699;28;20377;-76
2023/10/19 05:31:45;;;;;;;0.50;0.50;;;14.40;70.50;;;;;;5063878;28;20025;-76
2023/10/19 05:34:10;;;;;;;0.43;0.43;;;14.40;70.50;;;;;;5059161;28;20044;-76
2023/10/19 05:36:36;;;;;;;0.60;0.60;;;14.50;70.50;;;;;;5070359;28;20178;-76
2023/10/19 05:39:03;;;;;;;1.48;1.23;;;14.60;70.50;;;;;;5043443;28;20028;-76
2023/10/19 05:41:31;;;;;;;0.50;0.50;;;14.60;70.50;;;;;;5062696;28;20062;-75
2023/10/19 05:43:57;;;;;;;1.40;1.30;;;14.60;70.50;;;;;;5061762;28;20037;-77
2023/10/19 05:46:24;;;;;;;0.50;0.50;;;14.60;70.50;;;;;;5069295;28;20035;-77
2023/10/19 05:48:50;;;;;;;0.43;0.43;;;14.70;70.50;;;;;;5056037;28;20744;-77
2023/10/19 05:51:17;;;;;;;0.50;0.50;;;14.70;70.40;;;;;;5060337;28;20462;-77
2023/10/19 05:53:44;;;;;;;0.32;0.32;;;14.80;70.40;;;;;;5064542;28;20123;-77
2023/10/19 05:56:10;;;;;;;0.60;0.60;;;14.80;70.40;;;;;;5067579;28;20468;-78
2023/10/19 05:58:36;;;;;;;0.60;0.60;;;14.80;70.30;;;;;;5057983;28;20098;-78
2023/10/19 06:01:02;;;;;;;0.50;0.50;;;14.80;70.30;;;;;;5059167;28;20104;-77
2023/10/19 06:03:28;;;;;;;0.40;0.40;;;14.80;70.30;;;;;;5066148;28;20028;-77
2023/10/19 06:05:56;;;;;;;0.55;0.55;;;14.90;70.40;;;;;;5065588;28;20027;-76
2023/10/19 06:08:22;;;;;;;0.40;0.40;;;14.90;70.30;;;;;;5058459;28;20388;-78
2023/10/19 06:10:52;;;;;;;0.40;0.40;;;14.90;70.40;;;;;;5058354;28;20491;-77
2023/10/19 06:13:17;;;;;;;0.55;0.55;;;14.90;70.40;;;;;;5067412;28;20480;-77
2023/10/19 06:15:43;;;;;;;0.40;0.40;;;15.00;70.40;;;;;;5064148;28;20025;-77
2023/10/19 06:18:10;;;;;;;0.40;0.40;;;15.00;70.50;;;;;;5058389;28;20037;-77
2023/10/19 06:20:36;;;;;;;0.55;0.55;;;15.00;70.40;;;;;;5056311;28;20488;-77
2023/10/19 06:23:05;;;;;;;0.45;0.45;;;15.10;70.40;;;;;;5068556;28;20029;-78
2023/10/19 06:25:34;;;;;;;0.40;0.40;;;15.10;70.50;;;;;;5061418;28;20048;-79
2023/10/19 06:28:01;;;;;;;0.68;0.68;;;15.20;70.50;;;;;;5053788;28;20357;-78
2023/10/19 06:30:27;;;;;;;0.40;0.40;;;15.20;70.50;;;;;;5044132;28;20527;-78
2023/10/19 06:33:01;;;;;;;0.50;0.50;;;15.20;70.50;;;;;;5068946;28;20025;-78
2023/10/19 06:35:27;;;;;;;0.40;0.40;;;15.20;70.60;;;;;;5059079;28;20511;-77
2023/10/19 06:37:54;;;;;;;0.40;0.40;;;15.30;70.60;;;;;;5047950;28;20064;-77
2023/10/19 06:40:21;;;;;;;0.60;0.60;;;15.30;70.50;;;;;;5049974;28;20059;-78
2023/10/19 06:42:49;;;;;;;0.40;0.40;;;15.30;70.60;;;;;;5069357;28;20387;-78
2023/10/19 06:45:16;;;;;;;0.40;0.40;;;15.30;70.50;;;;;;5058763;28;20032;-78
2023/10/19 06:47:52;;;;;;;0.40;0.40;;;15.40;70.50;;;;;;5066619;28;20044;-78
2023/10/19 06:50:19;;;;;;;0.40;0.40;;;15.40;70.50;;;;;;5057271;28;20028;-78
2023/10/19 06:52:49;;;;;;;0.40;0.40;;;15.50;70.60;;;;;;5068963;28;20032;-78
2023/10/19 06:55:18;;;;;;;0.30;0.30;;;15.50;70.60;;;;;;5058782;28;20039;-77
2023/10/19 06:57:44;;;;;;;0.70;0.70;;;15.60;70.70;;;;;;5061979;28;20035;-76
2023/10/19 07:00:21;;;;;;;0.52;0.52;;;15.60;70.60;;;;;;5053270;28;20040;-77
2023/10/19 07:02:51;;;;;;;0.40;0.40;;;15.60;70.60;;;;;;5062788;28;20037;-75
2023/10/19 07:05:18;;;;;;;0.40;0.40;;;15.70;70.50;;;;;;5034258;28;20060;-77
2023/10/19 07:07:45;;;;;;;0.60;0.60;;;15.70;70.50;;;;;;5055276;28;20480;-77
2023/10/19 07:10:14;;;;;;;1.10;0.90;;;15.70;70.60;;;;;;5050631;28;20043;-77
2023/10/19 07:12:42;;;;;;;0.75;0.75;;;15.70;70.50;;;;;;5068853;28;20094;-77
2023/10/19 07:15:13;;;;;;;0.45;0.45;;;15.70;70.50;;;;;;5053392;28;20054;-78
2023/10/19 07:17:42;;;;;;;;;;;15.70;70.70;;;;;;5063162;28;20037;-78
2023/10/19 07:20:25;;;;;;;0.50;0.50;;;15.70;70.60;;;;;;5048372;28;20342;-78
2023/10/19 07:22:54;;;;;;;0.47;0.47;;;15.70;70.80;;;;;;5051533;28;20028;-79
2023/10/19 07:25:21;;;;;;;0.70;0.70;;;15.80;71.00;;;;;;5065053;28;20027;-79
2023/10/19 07:27:50;;;;;;;1.30;1.10;;;15.80;71.10;;;;;;5055501;28;20048;-79
2023/10/19 07:30:21;;;;;;;0.57;0.57;;;15.90;71.10;;;;;;5053783;28;20024;-76
2023/10/19 07:32:53;;;;;;;0.50;0.50;;;16.00;71.20;;;;;;5064964;28;20025;-78
2023/10/19 07:35:20;;;;;;;0.30;0.30;;;16.10;71.20;;;;;;5063941;28;20032;-78
2023/10/19 07:37:48;;;;;;;1.48;1.35;;;16.20;71.30;;;;;;5052585;28;20037;-78
2023/10/19 07:40:14;;;;;;;0.40;0.40;;;16.20;71.20;;;;;;5047377;28;20135;-79
2023/10/19 07:42:40;;;;;;;0.50;0.50;;;16.30;71.20;;;;;;5067861;28;20535;-78
2023/10/19 07:45:11;;;;;;;0.47;0.47;;;16.30;71.10;;;;;;5049733;28;20028;-78
2023/10/19 07:47:40;;;;;;;0.43;0.43;;;16.50;71.30;;;;;;5061617;28;20040;-77
2023/10/19 07:50:11;;;;;;;0.50;0.50;;;16.60;71.50;;;;;;5042484;28;20171;-78
2023/10/19 07:52:38;;;;;;;0.47;0.47;;;16.70;71.50;;;;;;5063950;28;20047;-78
2023/10/19 07:55:05;;;;;;;0.65;0.65;;;16.80;71.60;;;;;;5049082;28;20438;-77
2023/10/19 07:57:30;;;;;;;0.50;0.50;;;17.10;71.90;;;;;;5059262;28;20029;-78
2023/10/19 07:59:56;;;;;;;0.45;0.45;;;17.30;71.70;;;;;;5049943;28;20175;-69
2023/10/19 08:02:24;;;;;;;0.40;0.40;;;17.50;71.50;;;;;;5062483;28;20024;-69
2023/10/19 08:04:51;;;;;;;0.55;0.55;;;17.60;71.60;;;;;;5054008;28;20020;-70
2023/10/19 08:07:17;;;;;;;0.63;0.63;;;17.80;71.30;;;;;;5043938;28;20036;-70
2023/10/19 08:09:43;;;;;;;1.80;1.33;;;17.80;71.10;;;;;;5059880;28;20031;-69
2023/10/19 08:12:09;;;;;;;2.10;0.85;;;17.80;70.90;;;;;;5056208;28;20486;-68
2023/10/19 08:14:36;;;;;;;0.40;0.40;;;17.90;70.90;;;;;;5048359;28;20025;-69
2023/10/19 08:17:02;;;;;;;0.88;0.88;;;17.90;70.90;;;;;;5066054;28;20013;-69
2023/10/19 08:19:33;;;;;;;0.45;0.45;;;17.90;70.80;;;;;;5052383;28;20083;-69
2023/10/19 08:21:59;;;;;;;0.60;0.60;;;17.90;70.90;;;;;;5061365;28;20036;-68
2023/10/19 08:24:28;;;;;;;0.50;0.50;;;17.90;70.90;;;;;;5062995;28;20036;-68
2023/10/19 08:26:55;;;;;;;0.45;0.45;;;17.90;71.00;;;;;;5037686;28;20476;-68
2023/10/19 08:29:21;;;;;;;0.47;0.47;;;18.00;71.10;;;;;;5063222;28;20029;-69
2023/10/19 08:31:46;;;;;;;0.40;0.40;;;18.10;71.20;;;;;;5058904;28;20078;-69
2023/10/19 08:34:13;;;;;;;1.45;0.75;;;18.20;71.20;;;;;;5054372;28;20025;-68
2023/10/19 08:36:39;;;;;;;0.77;0.73;;;18.20;71.20;;;;;;5065264;28;20052;-67
2023/10/19 08:39:05;;;;;;;0.50;0.50;;;18.30;71.20;;;;;;5039119;28;20028;-68
2023/10/19 08:41:34;;;;;;;0.70;0.70;;;18.40;71.30;;;;;;5058715;28;20040;-68
2023/10/19 08:44:10;;;;;;;1.50;1.40;;;18.60;71.50;;;;;;5057504;28;20479;-68
2023/10/19 08:46:45;;;;;;;0.60;0.60;;;18.80;71.40;;;;;;5056854;28;20087;-68
2023/10/19 08:49:12;;;;;;;3.03;1.83;;;18.90;71.00;;;;;;5064270;28;20237;-68
2023/10/19 08:51:39;;;;;;;0.80;0.80;;;19.10;71.00;;;;;;5059768;28;20472;-68
2023/10/19 08:54:05;;;;;;;0.60;0.60;;;19.10;70.80;;;;;;5055715;28;20064;-69
2023/10/19 08:56:33;;;;;;;0.60;0.60;;;19.10;70.80;;;;;;5066630;28;20071;-69
2023/10/19 08:59:00;;;;;;;0.55;0.55;;;19.10;70.60;;;;;;5044106;28;20373;-68
2023/10/19 09:01:27;;;;;;;0.60;0.60;;;19.20;71.00;;;;;;5058147;28;20035;-68
2023/10/19 09:03:56;;;;;;;0.50;0.50;;;19.20;70.70;;;;;;5051293;28;20045;-68
2023/10/19 09:06:21;;;;;;;0.75;0.75;;;19.30;71.00;;;;;;5065558;28;20380;-68
2023/10/19 09:08:48;;;;;;;0.65;0.65;;;19.30;71.00;;;;;;5053463;28;20029;-68
2023/10/19 09:11:14;;;;;;;1.23;0.93;;;19.40;71.30;;;;;;5057873;28;20036;-68
2023/10/19 09:13:47;;;;;;;0.50;0.50;;;19.50;71.50;;;;;;5063766;28;20029;-68
2023/10/19 09:16:15;;;;;;;0.73;0.70;;;19.60;71.70;;;;;;5062152;28;20111;-68
2023/10/19 09:18:41;;;;;;;0.40;0.40;;;19.80;71.60;;;;;;5055493;28;20041;-68
2023/10/19 09:21:11;;;;;;;0.63;0.63;;;19.90;71.40;;;;;;5055340;28;20055;-68
2023/10/19 09:23:37;;;;;;;0.40;0.40;;;20.00;71.50;;;;;;5071673;28;20384;-69
2023/10/19 09:26:03;;;;;;;0.43;0.43;;;20.10;71.60;;;;;;5048789;28;20041;-69
2023/10/19 09:28:29;;;;;;;0.60;0.60;;;20.20;71.30;;;;;;5066635;28;20032;-69
2023/10/19 09:30:55;;;;;;;0.50;0.50;;;20.30;71.30;;;;;;5053308;28;20021;-69
2023/10/19 09:33:24;;;;;;;0.43;0.43;;;20.30;71.20;;;;;;5060638;28;20055;-68
2023/10/19 09:35:52;;;;;;;0.60;0.60;;;20.30;71.00;;;;;;5066436;28;20098;-70
2023/10/19 09:38:27;;;;;;;0.40;0.40;;;20.30;71.00;;;;;;5043934;28;20048;-70
2023/10/19 09:40:56;;;;;;;0.50;0.50;;;20.30;70.60;;;;;;5055036;28;20043;-70
2023/10/19 09:43:30;;;;;;;0.60;0.60;;;20.30;70.60;;;;;;5064789;28;20492;-69
2023/10/19 09:46:00;;;;;;;0.40;0.40;;;20.30;70.70;;;;;;5064612;28;20487;-70
2023/10/19 09:48:26;;;;;;;0.95;0.93;;;20.30;70.70;;;;;;5056651;28;20043;-68
2023/10/19 09:50:55;;;;;;;0.80;0.80;;;20.30;70.90;;;;;;5045045;28;20074;-67
2023/10/19 09:53:29;;;;;;;0.52;0.52;;;20.40;70.90;;;;;;5065812;28;20037;-68
2023/10/19 09:55:58;;;;;;;0.50;0.50;;;20.40;71.00;;;;;;5054032;28;20040;-68
2023/10/19 09:58:31;;;;;;;0.60;0.60;;;20.60;71.10;;;;;;5068702;28;20040;-68
2023/10/19 10:01:02;;;;;;;0.70;0.70;;;20.70;71.10;;;;;;5053924;28;20036;-68
2023/10/19 10:03:48;;;;;;;0.50;0.50;;;20.70;70.90;;;;;;5063116;28;20431;-69
2023/10/19 10:06:27;;;;;;;0.70;0.70;;;20.70;70.20;;;;;;5045487;28;20049;-69
2023/10/19 10:08:53;;;;;;;0.68;0.68;;;20.70;70.00;;;;;;5068973;28;20033;-68
2023/10/19 10:11:21;;;;;;;0.43;0.43;;;20.70;70.30;;;;;;5057659;28;20019;-68
2023/10/19 10:13:50;;;;;;;0.77;0.77;;;20.70;70.00;;;;;;5061447;28;20112;-69
2023/10/19 10:16:21;;;;;;;0.63;0.63;;;20.70;69.90;;;;;;5061824;28;20542;-69
2023/10/19 10:18:50;;;;;;;0.40;0.40;;;20.60;70.20;;;;;;5067667;28;20075;-68
2023/10/19 10:21:25;;;;;;;0.50;0.50;;;20.60;70.10;;;;;;5058699;28;20016;-68
2023/10/19 10:23:56;;;;;;;0.40;0.40;;;20.60;70.60;;;;;;5064285;28;20044;-68
2023/10/19 10:26:36;;;;;;;0.52;0.52;;;20.70;70.60;;;;;;5051642;28;20370;-68
2023/10/19 10:29:14;;;;;;;;;;;20.70;70.60;;;;;;5039240;28;20036;-68
2023/10/19 10:31:44;;;;;;;0.70;0.70;;;20.70;70.20;;;;;;5050015;28;20350;-72
2023/10/19 10:34:11;;;;;;;0.60;0.60;;;20.70;70.30;;;;;;5056431;28;20025;-73
2023/10/19 10:36:59;;;;;;;0.60;0.60;;;20.70;69.90;;;;;;5068322;28;20103;-73
2023/10/19 10:39:26;;;;;;;1.25;1.15;;;20.70;70.40;;;;;;5041242;28;20032;-73
2023/10/19 10:41:59;;;;;;;0.70;0.70;;;20.80;70.80;;;;;;5063024;28;20491;-73
2023/10/19 10:44:40;;;;;;;0.68;0.68;;;20.80;70.20;;;;;;5049304;28;20041;-73
2023/10/19 10:47:17;;;;;;;0.85;0.63;;;20.90;70.30;;;;;;5041984;28;20028;-73
2023/10/19 10:50:01;;;;;;;0.60;0.60;;;20.90;70.60;;;;;;5058117;28;20025;-72
2023/10/19 10:52:27;;;;;;;0.70;0.70;;;21.10;71.60;;;;;;5067973;28;20129;-73
2023/10/19 10:54:53;;;;;;;0.88;0.80;;;21.60;73.40;;;;;;5054673;28;20021;-73
2023/10/19 10:57:20;;;;;;;0.60;0.60;;;22.30;74.60;;;;;;5056042;28;20116;-73
2023/10/19 10:59:46;;;;;;;1.05;1.00;;;22.90;75.40;;;;;;5054588;28;20034;-71
2023/10/19 11:02:21;;;;;;;0.80;0.80;;;23.60;75.00;;;;;;5059911;28;20511;-73
2023/10/19 11:04:47;;;;;;;0.50;0.50;;;24.10;74.10;;;;;;5048935;28;20439;-72
2023/10/19 11:07:19;;;;;;;0.70;0.70;;;24.30;72.90;;;;;;5065529;28;20021;-74
2023/10/19 11:09:46;;;;;;;0.60;0.60;;;24.50;72.10;;;;;;5052897;28;20104;-71
2023/10/19 11:12:13;;;;;;;0.50;0.50;;;24.60;71.90;;;;;;5061022;28;20036;-72
2023/10/19 11:14:53;;;;;;;0.50;0.50;;;24.70;71.30;;;;;;5053014;28;20144;-72
2023/10/19 11:17:19;;;;;;;;;;;24.70;71.10;;;;;;5057639;28;20157;-73
2023/10/19 11:19:44;;;;;;;0.50;0.50;;;24.80;71.40;;;;;;5060460;28;19992;-72
2023/10/19 11:22:11;;;;;;;0.40;0.40;;;25.00;71.50;;;;;;5061289;28;20047;-72
2023/10/19 11:24:39;;;;;;;0.40;0.40;;;25.20;72.10;;;;;;5060184;28;20159;-74
2023/10/19 11:27:07;;;;;;;0.40;0.40;;;25.30;70.70;;;;;;5063221;28;20139;-72
2023/10/19 11:29:36;;;;;;;0.50;0.50;;;25.20;70.10;;;;;;5052321;28;20029;-73
2023/10/19 11:32:02;;;;;;;0.88;0.88;;;25.00;68.40;;;;;;5063011;28;20153;-73
2023/10/19 11:34:29;;;;;;;0.55;0.55;;;24.70;68.80;;;;;;5052696;28;20533;-73
2023/10/19 11:36:56;;;;;;;0.50;0.50;;;24.50;68.20;;;;;;5038111;28;20023;-72
2023/10/19 11:39:23;;;;;;;0.73;0.65;;;24.30;68.60;;;;;;5038843;28;20433;-73
2023/10/19 11:41:49;;;;;;;1.05;0.95;;;24.10;69.30;;;;;;5061885;28;20016;-72
2023/10/19 11:44:15;;;;;;;0.70;0.70;;;24.00;69.70;;;;;;5054298;28;20025;-73
2023/10/19 11:46:40;;;;;;;0.63;0.63;;;24.10;70.10;;;;;;5052564;28;20236;-72
2023/10/19 11:49:06;;;;;;;0.60;0.60;;;24.30;71.00;;;;;;5049308;28;20778;-72
2023/10/19 11:51:32;;;;;;;0.80;0.80;;;24.50;70.20;;;;;;5052783;28;20048;-72
2023/10/19 11:53:58;;;;;;;0.50;0.50;;;24.50;69.40;;;;;;5057832;28;20104;-73
2023/10/19 11:56:25;;;;;;;0.50;0.50;;;24.50;69.60;;;;;;5057186;28;20538;-73
2023/10/19 11:58:50;;;;;;;0.45;0.45;;;24.40;69.70;;;;;;5034712;28;20024;-72
2023/10/19 12:01:19;;;;;;;0.63;0.63;;;24.40;69.50;;;;;;5037460;28;20047;-72
2023/10/19 12:03:48;;;;;;;2.33;0.93;;;24.50;70.00;;;;;;5049177;28;20080;-72
2023/10/19 12:06:20;;;;;;;0.77;0.77;;;24.50;69.50;;;;;;5053657;28;20029;-73
2023/10/19 12:08:45;;;;;;;0.50;0.50;;;24.50;69.00;;;;;;5067219;28;20035;-73
2023/10/19 12:11:18;;;;;;;0.55;0.55;;;24.40;68.40;;;;;;5038034;28;20108;-73
2023/10/19 12:13:45;;;;;;;6.90;1.52;;;24.30;68.80;;;;;;5060851;28;20117;-72
2023/10/19 12:16:15;;;;;;;0.57;0.57;;;24.30;68.30;;;;;;5051118;28;20033;-73
2023/10/19 12:18:44;;;;;;;0.50;0.50;;;24.20;67.70;;;;;;5067281;28;20320;-73
2023/10/19 12:21:13;;;;;;;0.88;0.88;;;24.10;67.30;;;;;;5048598;28;20036;-72
2023/10/19 12:23:50;;;;;;;0.55;0.55;;;24.10;68.10;;;;;;5051828;28;20066;-72
2023/10/19 12:26:16;;;;;;;0.45;0.45;;;24.10;69.00;;;;;;5055339;28;20025;-72
2023/10/19 12:28:43;;;;;;;0.63;0.63;;;24.30;69.30;;;;;;5058356;28;20037;-72
2023/10/19 12:31:09;;;;;;;0.40;0.40;;;24.50;68.60;;;;;;5058601;28;20057;-72
2023/10/19 12:33:38;;;;;;;0.60;0.60;;;24.50;66.40;;;;;;5048811;28;20028;-72
2023/10/19 12:38:50;;;;;;;0.55;0.55;;;24.50;67.40;;;;;;5044169;28;20039;-72
2023/10/19 12:41:15;;;;;;;0.52;0.52;;;24.60;67.20;;;;;;5064041;28;20074;-73
2023/10/19 12:43:41;;;;;;;0.52;0.52;;;24.70;65.00;;;;;;5054357;28;20501;-73
2023/10/19 12:46:08;;;;;;;0.60;0.60;;;24.60;65.10;;;;;;5060390;28;20024;-73
2023/10/19 12:48:35;;;;;;;0.50;0.50;;;24.40;64.10;;;;;;5045399;28;20029;-72
2023/10/19 12:51:01;;;;;;;0.40;0.40;;;24.40;66.30;;;;;;5067499;28;20036;-72
2023/10/19 12:53:27;;;;;;;1.90;1.00;;;24.30;65.90;;;;;;5062184;28;20043;-72
2023/10/19 12:55:53;;;;;;;0.55;0.55;;;24.30;64.10;;;;;;5061769;28;20485;-72
2023/10/19 12:58:21;;;;;;;0.50;0.50;;;24.20;65.00;;;;;;5068417;28;20028;-71
2023/10/19 13:00:48;;;;;;;0.47;0.47;;;24.10;64.10;;;;;;5055371;28;20033;-73
2023/10/19 13:03:15;;;;;;;0.60;0.60;;;23.90;64.60;;;;;;5058223;28;20023;-72
2023/10/19 13:05:44;;;;;;;0.50;0.50;;;23.80;64.90;;;;;;5063321;28;20104;-72
2023/10/19 13:08:13;;;;;;;0.60;0.60;;;23.70;63.20;;;;;;5051880;28;20393;-73
2023/10/19 13:10:41;;;;;;;0.75;0.75;;;23.60;64.30;;;;;;5070069;28;20096;-71
2023/10/19 13:13:11;;;;;;;0.70;0.70;;;23.50;64.60;;;;;;5049689;28;20453;-72
2023/10/19 13:15:38;;;;;;;0.43;0.43;;;23.40;65.30;;;;;;5045116;28;20079;-72
2023/10/19 13:18:05;;;;;;;0.80;0.80;;;23.40;65.20;;;;;;5066448;28;20464;-73